Time;durP1;ratioP1;P1;durP2;ratioP2;P2;SDS_P1;SDS_P2;PMS_P1;PMS_P2;Temp;Humidity;BMP_temperature;BMP_pressure;BME280_temperature;BME280_humidity;BME280_pressure;Samples;Min_cycle;Max_cycle;Signal;HPM_P1;HPM_P2
2023/07/15 00:00:58;;;;;;;3.67;1.93;;;18.60;1.00;;;;;;5034563;28;20782;-79
2023/07/15 00:03:23;;;;;;;3.13;2.07;;;18.60;1.00;;;;;;5054000;28;20209;-80
2023/07/15 00:05:49;;;;;;;2.67;1.97;;;18.70;1.00;;;;;;5034852;28;20212;-81
2023/07/15 00:08:15;;;;;;;2.63;2.13;;;18.70;1.00;;;;;;5034980;28;20200;-79
2023/07/15 00:10:44;;;;;;;2.43;1.90;;;18.70;1.00;;;;;;5052115;28;20648;-80
2023/07/15 00:13:12;;;;;;;3.50;1.90;;;18.70;1.00;;;;;;5052583;28;20676;-80
2023/07/15 00:15:39;;;;;;;3.20;2.10;;;18.60;1.00;;;;;;5035058;28;20181;-80
2023/07/15 00:18:05;;;;;;;3.60;2.00;;;18.70;1.00;;;;;;5052587;28;20173;-79
2023/07/15 00:20:31;;;;;;;4.30;2.10;;;18.70;1.00;;;;;;5034288;28;20173;-78
2023/07/15 00:22:56;;;;;;;3.60;2.10;;;18.70;1.00;;;;;;5033246;28;20255;-79
2023/07/15 00:25:22;;;;;;;2.90;2.00;;;18.70;1.00;;;;;;5042225;28;20264;-81
2023/07/15 00:27:48;;;;;;;2.83;2.00;;;18.60;1.00;;;;;;5017460;28;20274;-79
2023/07/15 00:30:16;;;;;;;2.10;1.90;;;18.60;1.00;;;;;;5033405;28;20265;-79
2023/07/15 00:32:46;;;;;;;3.03;2.30;;;18.60;1.00;;;;;;5027558;28;20200;-79
2023/07/15 00:35:29;;;;;;;2.20;2.00;;;18.60;1.00;;;;;;5037326;28;20170;-78
2023/07/15 00:37:58;;;;;;;4.93;2.38;;;18.60;1.00;;;;;;5038036;28;20657;-79
2023/07/15 00:40:38;;;;;;;2.30;1.80;;;18.50;1.00;;;;;;5037739;28;20219;-79
2023/07/15 00:43:41;;;;;;;2.17;1.97;;;18.40;1.00;;;;;;5053391;28;20197;-79
2023/07/15 00:46:12;;;;;;;2.20;1.70;;;18.40;1.00;;;;;;5044018;28;20213;-79
2023/07/15 00:48:45;;;;;;;1.80;1.70;;;18.40;45.10;;;;;;5017980;28;20178;-79
2023/07/15 00:51:10;;;;;;;3.53;2.27;;;18.40;9.80;;;;;;5017784;28;20273;-79
2023/07/15 00:53:36;;;;;;;4.57;1.87;;;18.50;99.90;;;;;;5017908;28;20225;-79
2023/07/15 00:56:01;;;;;;;2.30;2.03;;;18.40;1.00;;;;;;5018268;28;20184;-79
2023/07/15 00:58:27;;;;;;;2.87;1.90;;;18.40;99.90;;;;;;5018032;28;20646;-79
2023/07/15 01:00:52;;;;;;;2.70;1.90;;;18.40;99.90;;;;;;5017509;28;20206;-79
2023/07/15 01:03:18;;;;;;;2.07;1.87;;;18.40;1.00;;;;;;5035613;28;20680;-79
2023/07/15 01:05:44;;;;;;;3.60;2.10;;;18.40;96.00;;;;;;5035539;28;20198;-79
2023/07/15 01:08:09;;;;;;;3.43;2.03;;;18.40;99.90;;;;;;5035700;28;20672;-79
2023/07/15 01:10:35;;;;;;;3.87;2.33;;;18.20;1.00;;;;;;5017892;28;20692;-79
2023/07/15 01:13:03;;;;;;;3.03;2.00;;;18.20;1.00;;;;;;5047013;28;20679;-79
2023/07/15 01:15:29;;;;;;;2.30;2.00;;;18.20;1.00;;;;;;5034378;28;20174;-79
2023/07/15 01:17:56;;;;;;;2.73;1.80;;;18.20;1.00;;;;;;5035526;28;20181;-79
2023/07/15 01:20:25;;;;;;;2.33;2.10;;;18.30;1.00;;;;;;5035255;28;20181;-79
2023/07/15 01:22:51;;;;;;;2.30;2.10;;;18.30;1.00;;;;;;5033880;28;20221;-79
2023/07/15 01:25:17;;;;;;;3.07;2.20;;;18.30;1.00;;;;;;5034064;28;20640;-79
2023/07/15 01:27:42;;;;;;;3.17;2.20;;;18.30;1.00;;;;;;5035556;28;20174;-79
2023/07/15 01:30:09;;;;;;;2.30;2.10;;;18.20;1.00;;;;;;5034808;28;20403;-79
2023/07/15 01:32:35;;;;;;;2.50;2.00;;;18.20;1.00;;;;;;5035165;28;20186;-81
2023/07/15 01:35:03;;;;;;;2.17;1.97;;;18.10;1.00;;;;;;5033924;28;20171;-79
2023/07/15 01:37:29;;;;;;;3.20;2.17;;;18.10;1.00;;;;;;5033939;28;20182;-81
2023/07/15 01:39:54;;;;;;;2.87;2.00;;;18.10;99.90;;;;;;5034422;28;20206;-79
2023/07/15 01:42:20;;;;;;;2.73;2.17;;;18.10;99.90;;;;;;5033747;28;20204;-79
2023/07/15 01:44:45;;;;;;;3.00;2.00;;;18.00;1.00;;;;;;5035302;28;20201;-79
2023/07/15 01:47:11;;;;;;;3.13;2.30;;;18.00;1.00;;;;;;5032493;28;20198;-81
2023/07/15 01:49:37;;;;;;;2.50;2.20;;;18.00;1.00;;;;;;5033403;28;20174;-77
2023/07/15 01:52:02;;;;;;;2.23;2.03;;;18.00;99.90;;;;;;5035036;28;20219;-79
2023/07/15 01:54:28;;;;;;;2.43;2.00;;;18.10;99.90;;;;;;5033714;28;20272;-79
2023/07/15 01:56:54;;;;;;;3.50;1.90;;;18.10;99.90;;;;;;5033345;28;20321;-80
2023/07/15 01:59:19;;;;;;;4.87;2.33;;;18.10;1.00;;;;;;5034653;28;20193;-79
2023/07/15 02:01:45;;;;;;;2.57;2.37;;;18.10;1.00;;;;;;5034129;28;20641;-79
2023/07/15 02:04:10;;;;;;;3.27;2.23;;;18.10;1.00;;;;;;5034547;28;20212;-79
2023/07/15 02:06:36;;;;;;;2.40;2.20;;;18.20;99.90;;;;;;5034483;28;20206;-81
2023/07/15 02:09:04;;;;;;;2.53;2.27;;;18.30;99.90;;;;;;5033513;28;20178;-79
2023/07/15 02:11:30;;;;;;;3.00;2.40;;;18.30;99.90;;;;;;5034056;28;20237;-80
2023/07/15 02:13:56;;;;;;;2.63;2.10;;;18.40;99.90;;;;;;5033564;28;20228;-79
2023/07/15 02:16:22;;;;;;;4.27;2.40;;;18.40;99.90;;;;;;5033353;28;20538;-79
2023/07/15 02:18:48;;;;;;;1.90;1.80;;;18.40;99.90;;;;;;5033921;28;20257;-79
2023/07/15 02:21:13;;;;;;;2.20;2.00;;;18.50;99.90;;;;;;5032788;28;20182;-79
2023/07/15 02:23:39;;;;;;;4.93;2.50;;;18.50;55.50;;;;;;5034331;28;20206;-79
2023/07/15 02:26:04;;;;;;;3.33;2.13;;;18.50;99.90;;;;;;5034384;28;20348;-81
2023/07/15 02:28:30;;;;;;;2.47;2.20;;;18.50;1.00;;;;;;5033272;28;20202;-79
2023/07/15 02:30:56;;;;;;;2.60;2.13;;;18.50;1.00;;;;;;5033662;28;20248;-80
2023/07/15 02:33:23;;;;;;;4.07;2.03;;;18.50;1.00;;;;;;5033908;28;20202;-79
2023/07/15 02:35:48;;;;;;;2.30;2.10;;;18.60;99.90;;;;;;5034307;28;20166;-79
2023/07/15 02:38:14;;;;;;;2.27;1.93;;;18.60;99.90;;;;;;5033034;28;20170;-79
2023/07/15 02:40:39;;;;;;;2.47;2.00;;;18.60;72.20;;;;;;5033749;28;20194;-80
2023/07/15 02:43:05;;;;;;;5.77;2.60;;;18.70;99.90;;;;;;5034361;28;20205;-79
2023/07/15 02:45:31;;;;;;;3.37;2.20;;;18.70;1.00;;;;;;5034173;28;20184;-79
2023/07/15 02:47:56;;;;;;;2.50;2.30;;;18.70;1.00;;;;;;5034227;28;20171;-79
2023/07/15 02:50:22;;;;;;;2.80;2.20;;;18.80;99.90;;;;;;5032388;28;20175;-79
2023/07/15 02:52:48;;;;;;;2.30;2.10;;;18.80;1.00;;;;;;5032539;28;20186;-79
2023/07/15 02:55:14;;;;;;;2.90;2.10;;;18.70;1.00;;;;;;5034472;28;20236;-80
2023/07/15 02:57:40;;;;;;;3.07;2.00;;;18.80;1.00;;;;;;5032579;28;20553;-79
2023/07/15 03:00:15;;;;;;;2.30;2.10;;;18.90;69.10;;;;;;5031716;28;20265;-81
2023/07/15 03:02:44;;;;;;;2.30;2.10;;;18.90;99.90;;;;;;5034027;28;20312;-80
2023/07/15 03:05:10;;;;;;;2.33;2.00;;;18.90;99.90;;;;;;5034316;28;20209;-79
2023/07/15 03:07:36;;;;;;;3.93;2.30;;;18.90;99.90;;;;;;5032260;28;20691;-79
2023/07/15 03:10:02;;;;;;;2.30;2.10;;;18.80;99.90;;;;;;5033447;28;20224;-79
2023/07/15 03:12:28;;;;;;;2.10;1.90;;;18.80;1.00;;;;;;5033615;28;20202;-79
2023/07/15 03:14:54;;;;;;;2.30;2.10;;;18.70;99.90;;;;;;5033763;28;20185;-79
2023/07/15 03:17:20;;;;;;;2.83;2.20;;;18.60;1.00;;;;;;5033981;28;20236;-79
2023/07/15 03:19:45;;;;;;;3.07;2.10;;;18.50;1.00;;;;;;5031964;28;20177;-79
2023/07/15 03:22:11;;;;;;;2.60;2.40;;;18.40;99.90;;;;;;5033461;28;20166;-79
2023/07/15 03:24:37;;;;;;;3.57;2.00;;;18.40;99.90;;;;;;5033800;28;20213;-79
2023/07/15 03:27:03;;;;;;;2.20;1.83;;;18.40;99.90;;;;;;5032232;28;20201;-81
2023/07/15 03:29:29;;;;;;;3.13;2.20;;;18.30;99.90;;;;;;5032668;28;20316;-78
2023/07/15 03:31:55;;;;;;;2.70;2.33;;;18.30;99.90;;;;;;5032256;28;20177;-79
2023/07/15 03:34:21;;;;;;;2.40;2.20;;;18.30;99.30;;;;;;5044663;28;20572;-79
2023/07/15 03:36:46;;;;;;;2.20;1.93;;;18.30;99.90;;;;;;5053446;28;20177;-79
2023/07/15 03:39:12;;;;;;;2.70;2.07;;;18.20;1.00;;;;;;5053814;28;20181;-79
2023/07/15 03:41:38;;;;;;;2.50;2.30;;;18.20;1.00;;;;;;5034915;28;20173;-79
2023/07/15 03:44:03;;;;;;;3.20;2.13;;;18.20;1.00;;;;;;5035335;28;20197;-79
2023/07/15 03:46:30;;;;;;;2.43;2.10;;;18.20;1.00;;;;;;5035137;28;20201;-80
2023/07/15 03:48:55;;;;;;;2.83;2.07;;;18.20;49.80;;;;;;5035826;28;20204;-80
2023/07/15 03:51:21;;;;;;;3.10;2.10;;;18.20;99.90;;;;;;5052812;28;20170;-79
2023/07/15 03:53:46;;;;;;;2.83;2.10;;;18.30;99.90;;;;;;5035639;28;20194;-79
2023/07/15 03:56:12;;;;;;;2.57;2.03;;;18.30;99.90;;;;;;5035607;28;20174;-79
2023/07/15 03:58:38;;;;;;;2.10;1.90;;;18.30;1.00;;;;;;5053754;28;20193;-79
2023/07/15 04:01:03;;;;;;;2.43;2.03;;;18.40;99.90;;;;;;5034513;28;20250;-79
2023/07/15 04:03:29;;;;;;;2.30;2.10;;;18.50;1.00;;;;;;5035829;28;20217;-79
2023/07/15 04:05:55;;;;;;;4.97;2.30;;;18.40;98.20;;;;;;5052981;28;20201;-81
2023/07/15 04:08:20;;;;;;;2.83;2.10;;;18.30;99.90;;;;;;5053680;28;20185;-79
2023/07/15 04:10:49;;;;;;;2.10;1.97;;;18.30;1.00;;;;;;5055924;28;20197;-78
2023/07/15 04:13:15;;;;;;;2.53;2.20;;;18.20;1.00;;;;;;5039237;28;20649;-79
2023/07/15 04:15:40;;;;;;;2.63;2.40;;;18.10;1.00;;;;;;5057150;28;20196;-79
2023/07/15 04:18:06;;;;;;;2.43;2.23;;;17.90;1.00;;;;;;5056763;28;20595;-80
2023/07/15 04:20:32;;;;;;;2.90;2.30;;;17.80;99.90;;;;;;5038618;28;20636;-80
2023/07/15 04:22:58;;;;;;;3.70;2.17;;;17.90;99.90;;;;;;5038762;28;20193;-79
2023/07/15 04:25:24;;;;;;;2.30;2.00;;;17.80;99.90;;;;;;5056680;28;20607;-79
2023/07/15 04:27:49;;;;;;;2.33;2.10;;;17.90;99.90;;;;;;5056367;28;20220;-79
2023/07/15 04:30:16;;;;;;;2.43;2.10;;;18.00;31.20;;;;;;5056124;28;20174;-79
2023/07/15 04:32:41;;;;;;;3.97;2.10;;;18.10;1.00;;;;;;5038529;28;20625;-79
2023/07/15 04:35:07;;;;;;;2.30;2.10;;;18.20;44.10;;;;;;5039103;28;20170;-79
2023/07/15 04:37:33;;;;;;;3.50;1.90;;;18.20;99.90;;;;;;5038603;28;20177;-80
2023/07/15 04:39:58;;;;;;;2.40;2.20;;;18.30;99.90;;;;;;5038119;28;20174;-79
2023/07/15 04:42:25;;;;;;;2.20;2.00;;;18.30;1.00;;;;;;5038707;28;20561;-79
2023/07/15 04:44:51;;;;;;;2.23;1.80;;;18.50;11.00;;;;;;5056823;28;20312;-80
2023/07/15 04:47:16;;;;;;;2.20;2.00;;;18.50;1.00;;;;;;5056418;28;20288;-79
2023/07/15 04:49:42;;;;;;;3.20;2.10;;;18.60;1.00;;;;;;5037838;28;20272;-79
2023/07/15 04:52:07;;;;;;;3.13;2.30;;;18.70;99.90;;;;;;5038402;28;20181;-79
2023/07/15 04:54:33;;;;;;;2.37;2.17;;;18.70;1.00;;;;;;5056668;28;20213;-80
2023/07/15 04:56:58;;;;;;;2.53;2.10;;;18.70;1.00;;;;;;5038635;28;20174;-79
2023/07/15 04:59:24;;;;;;;2.50;2.30;;;18.60;96.50;;;;;;5056387;28;20178;-80
2023/07/15 05:01:51;;;;;;;2.50;2.17;;;18.60;99.90;;;;;;5038047;28;20177;-79
2023/07/15 05:04:17;;;;;;;1.70;1.60;;;18.70;99.90;;;;;;5054331;28;20585;-77
2023/07/15 05:06:42;;;;;;;2.03;1.83;;;19.50;1.00;;;;;;5054482;28;20212;-77
2023/07/15 05:09:09;;;;;;;3.15;2.00;;;20.30;99.90;;;;;;5036836;28;20174;-77
2023/07/15 05:11:35;;;;;;;2.38;1.92;;;20.80;73.20;;;;;;5037471;28;20173;-79
2023/07/15 05:14:01;;;;;;;2.10;1.90;;;20.90;99.90;;;;;;5038207;28;20200;-80
2023/07/15 05:16:26;;;;;;;3.65;1.92;;;21.20;80.10;;;;;;5055822;28;20673;-79
2023/07/15 05:18:52;;;;;;;3.17;2.33;;;21.40;1.00;;;;;;5054140;28;20173;-78
2023/07/15 05:21:17;;;;;;;6.32;5.40;;;21.40;99.90;;;;;;5036664;28;20174;-78
2023/07/15 05:23:43;;;;;;;2.92;2.58;;;21.50;99.90;;;;;;5055832;28;20186;-82
2023/07/15 05:26:08;;;;;;;3.28;2.15;;;21.60;99.90;;;;;;5056157;28;20194;-81
2023/07/15 05:28:35;;;;;;;2.25;2.03;;;21.70;1.00;;;;;;5037665;28;20170;-82
2023/07/15 05:31:01;;;;;;;2.40;2.00;;;21.70;1.00;;;;;;5055200;28;20272;-81
2023/07/15 05:33:28;;;;;;;2.58;2.10;;;21.80;1.00;;;;;;5053893;28;20209;-78
2023/07/15 05:35:54;;;;;;;2.83;2.38;;;21.60;1.00;;;;;;5037742;28;20173;-80
2023/07/15 05:38:24;;;;;;;2.53;2.00;;;21.50;1.00;;;;;;5056725;28;20169;-82
2023/07/15 05:40:50;;;;;;;4.55;2.67;;;21.50;1.00;;;;;;5038450;28;20196;-79
2023/07/15 05:43:16;;;;;;;2.45;2.00;;;21.50;1.00;;;;;;5055811;28;20198;-82
2023/07/15 05:45:41;;;;;;;3.15;2.25;;;21.50;99.90;;;;;;5038339;28;20200;-79
2023/07/15 05:48:07;;;;;;;2.38;2.00;;;21.40;1.00;;;;;;5038503;28;20260;-80
2023/07/15 05:50:36;;;;;;;2.60;2.17;;;21.50;56.60;;;;;;5038017;28;20683;-80
2023/07/15 05:53:05;;;;;;;3.42;2.30;;;21.50;99.90;;;;;;5038399;28;20190;-81
2023/07/15 05:55:33;;;;;;;2.22;2.03;;;21.50;1.00;;;;;;5056106;28;20247;-77
2023/07/15 05:57:59;;;;;;;2.42;2.22;;;21.50;1.00;;;;;;5036382;28;20256;-79
2023/07/15 06:00:24;;;;;;;3.63;2.20;;;21.60;1.00;;;;;;5035942;28;20261;-78
2023/07/15 06:02:50;;;;;;;2.20;2.00;;;21.80;99.90;;;;;;5055780;28;20208;-78
2023/07/15 06:05:15;;;;;;;2.40;2.10;;;22.00;99.90;;;;;;5055306;28;20220;-78
2023/07/15 06:07:41;;;;;;;4.90;2.38;;;22.20;99.90;;;;;;5054353;28;20197;-78
2023/07/15 06:10:07;;;;;;;2.80;2.30;;;22.50;1.00;;;;;;5053511;28;20616;-78
2023/07/15 06:12:32;;;;;;;2.65;2.08;;;22.60;1.00;;;;;;5054180;28;20236;-78
2023/07/15 06:14:58;;;;;;;2.42;2.22;;;22.60;1.00;;;;;;5055029;28;20190;-79
2023/07/15 06:17:23;;;;;;;2.40;2.20;;;22.70;1.00;;;;;;5054815;28;20204;-78
2023/07/15 06:19:49;;;;;;;4.82;3.35;;;22.60;95.30;;;;;;5036210;28;20632;-78
2023/07/15 06:22:14;;;;;;;5.10;2.92;;;22.60;99.90;;;;;;5036607;28;20178;-78
2023/07/15 06:24:40;;;;;;;3.30;2.72;;;22.70;99.90;;;;;;5032684;28;20194;-78
2023/07/15 06:27:06;;;;;;;2.92;2.50;;;22.70;99.90;;;;;;5034159;28;20202;-78
2023/07/15 06:29:32;;;;;;;3.13;2.45;;;22.80;1.00;;;;;;5032963;28;20167;-78
2023/07/15 06:31:57;;;;;;;2.75;1.85;;;22.80;1.00;;;;;;5044008;28;20185;-78
2023/07/15 06:34:23;;;;;;;2.70;2.00;;;22.90;99.90;;;;;;5033339;28;20209;-78
2023/07/15 06:36:49;;;;;;;2.10;1.90;;;23.20;99.90;;;;;;5035521;28;20208;-79
2023/07/15 06:39:14;;;;;;;3.85;1.95;;;23.30;99.90;;;;;;5018106;28;20261;-75
2023/07/15 06:41:40;;;;;;;3.22;2.00;;;23.50;99.90;;;;;;5014466;28;20319;-78
2023/07/15 06:44:05;;;;;;;2.33;1.85;;;23.80;1.00;;;;;;5032990;28;20685;-79
2023/07/15 06:46:31;;;;;;;2.60;1.75;;;24.00;1.00;;;;;;5051495;28;20220;-78
2023/07/15 06:48:57;;;;;;;2.42;2.00;;;24.10;1.00;;;;;;5052524;28;20707;-78
2023/07/15 06:51:23;;;;;;;1.90;1.80;;;24.20;1.00;;;;;;5034507;28;20165;-79
2023/07/15 06:53:48;;;;;;;3.60;2.00;;;24.50;1.00;;;;;;5052204;28;20190;-78
2023/07/15 06:56:14;;;;;;;1.85;1.67;;;24.80;1.00;;;;;;5034945;28;20176;-79
2023/07/15 06:58:40;;;;;;;1.92;1.73;;;24.90;1.00;;;;;;5034499;28;20262;-79
2023/07/15 07:01:05;;;;;;;1.80;1.70;;;25.10;1.00;;;;;;5052015;28;20185;-79
2023/07/15 07:03:32;;;;;;;2.35;1.80;;;25.20;1.00;;;;;;5035331;28;20208;-78
2023/07/15 07:05:58;;;;;;;2.60;2.00;;;25.30;1.00;;;;;;5036322;28;20250;-77
2023/07/15 07:08:23;;;;;;;2.88;2.25;;;25.40;1.00;;;;;;5054046;28;20173;-79
2023/07/15 07:10:52;;;;;;;4.72;1.80;;;25.50;99.90;;;;;;5053227;28;20582;-79
2023/07/15 07:13:18;;;;;;;2.13;1.90;;;25.60;1.00;;;;;;5053922;28;20213;-77
2023/07/15 07:15:44;;;;;;;2.53;2.15;;;25.70;1.00;;;;;;5054108;28;20259;-79
2023/07/15 07:18:11;;;;;;;3.25;1.80;;;25.90;99.90;;;;;;5053029;28;20260;-79
2023/07/15 07:20:40;;;;;;;2.03;1.83;;;26.00;99.90;;;;;;5052217;28;20231;-78
2023/07/15 07:23:05;;;;;;;2.70;2.10;;;26.20;99.90;;;;;;5035286;28;20221;-79
2023/07/15 07:25:31;;;;;;;2.55;1.83;;;26.30;99.90;;;;;;5052685;28;20197;-79
2023/07/15 07:27:56;;;;;;;2.10;1.90;;;26.30;99.90;;;;;;5052561;28;20166;-79
2023/07/15 07:30:23;;;;;;;2.10;1.90;;;26.40;99.90;;;;;;5052313;28;20173;-79
2023/07/15 07:32:48;;;;;;;4.25;1.83;;;26.50;99.90;;;;;;5034723;28;20194;-78
2023/07/15 07:35:14;;;;;;;2.25;1.90;;;26.60;99.90;;;;;;5034741;28;20273;-79
2023/07/15 07:37:40;;;;;;;3.67;1.80;;;26.70;99.90;;;;;;5034621;28;20271;-78
2023/07/15 07:40:09;;;;;;;2.10;1.90;;;26.80;99.90;;;;;;5044452;28;20166;-79
2023/07/15 07:42:35;;;;;;;1.83;1.63;;;26.90;99.90;;;;;;5032928;28;20257;-76
2023/07/15 07:45:00;;;;;;;2.15;1.90;;;26.90;99.90;;;;;;5017080;28;20197;-75
2023/07/15 07:47:26;;;;;;;2.10;1.90;;;27.00;99.90;;;;;;5036633;28;20190;-79
2023/07/15 07:49:51;;;;;;;2.85;1.90;;;27.10;99.90;;;;;;5036543;28;20185;-78
2023/07/15 07:52:17;;;;;;;4.68;2.10;;;27.10;99.90;;;;;;5019124;28;20176;-78
2023/07/15 07:54:42;;;;;;;3.58;1.80;;;27.20;99.90;;;;;;5018789;28;20178;-79
2023/07/15 07:57:10;;;;;;;2.42;1.90;;;27.30;99.90;;;;;;5018671;28;20649;-79
2023/07/15 07:59:35;;;;;;;1.73;1.63;;;27.50;99.90;;;;;;5018705;28;20182;-78
2023/07/15 08:02:01;;;;;;;2.90;1.90;;;27.60;99.90;;;;;;5036894;28;20197;-78
2023/07/15 08:04:26;;;;;;;2.00;1.80;;;27.70;99.90;;;;;;5036345;28;20268;-77
2023/07/15 08:06:52;;;;;;;2.45;2.00;;;27.70;99.90;;;;;;5018461;28;20202;-76
2023/07/15 08:09:17;;;;;;;6.93;2.40;;;27.70;99.90;;;;;;5018584;28;20201;-79
2023/07/15 08:11:44;;;;;;;2.88;1.90;;;27.80;99.90;;;;;;5035815;28;20171;-79
2023/07/15 08:14:09;;;;;;;2.40;2.13;;;27.90;99.90;;;;;;5036228;28;20233;-79
2023/07/15 08:16:37;;;;;;;2.92;2.00;;;28.00;99.90;;;;;;5036309;28;20661;-75
2023/07/15 08:19:04;;;;;;;3.17;1.80;;;28.10;99.90;;;;;;5036417;28;20207;-79
2023/07/15 08:21:30;;;;;;;3.42;1.98;;;28.20;99.90;;;;;;5018089;28;20174;-79
2023/07/15 08:23:56;;;;;;;1.75;1.65;;;28.20;99.90;;;;;;5018513;28;20256;-79
2023/07/15 08:26:23;;;;;;;2.22;1.70;;;28.40;99.90;;;;;;5035853;28;20562;-79
2023/07/15 08:28:49;;;;;;;2.75;2.10;;;28.50;99.90;;;;;;5036199;28;20178;-78
2023/07/15 08:31:15;;;;;;;2.33;1.80;;;28.40;99.90;;;;;;5018237;28;20173;-80
2023/07/15 08:33:41;;;;;;;2.10;1.90;;;28.40;99.90;;;;;;5035788;28;20685;-79
2023/07/15 08:36:07;;;;;;;2.90;1.73;;;28.40;99.90;;;;;;5036254;28;20181;-78
2023/07/15 08:38:33;;;;;;;2.20;1.80;;;28.50;99.90;;;;;;5021395;28;20177;-77
2023/07/15 08:41:00;;;;;;;2.22;2.00;;;28.70;99.90;;;;;;5040206;28;20178;-79
2023/07/15 08:43:30;;;;;;;2.50;2.10;;;28.90;99.90;;;;;;5034600;28;20217;-79
2023/07/15 08:45:59;;;;;;;2.53;1.92;;;29.10;99.90;;;;;;5017401;28;20293;-77
2023/07/15 08:48:26;;;;;;;4.10;1.83;;;29.20;99.90;;;;;;5017306;28;20648;-79
2023/07/15 08:50:56;;;;;;;3.38;1.98;;;29.20;99.90;;;;;;5034925;28;20253;-78
2023/07/15 08:53:25;;;;;;;2.25;1.90;;;29.20;99.90;;;;;;5034882;28;20212;-79
2023/07/15 08:55:53;;;;;;;4.95;2.05;;;29.30;99.90;;;;;;5017083;28;20215;-79
2023/07/15 08:58:20;;;;;;;2.20;2.00;;;29.50;99.90;;;;;;5017490;28;20178;-79
2023/07/15 09:00:45;;;;;;;1.90;1.80;;;29.70;98.70;;;;;;5034387;28;20174;-79
2023/07/15 09:03:11;;;;;;;2.40;1.85;;;29.80;91.50;;;;;;5034917;28;20221;-79
2023/07/15 09:05:36;;;;;;;2.28;2.05;;;30.00;88.30;;;;;;5017114;28;20261;-79
2023/07/15 09:08:09;;;;;;;4.18;1.90;;;30.10;80.80;;;;;;5035301;28;20174;-79
2023/07/15 09:10:35;;;;;;;2.35;1.77;;;30.30;85.30;;;;;;5034521;28;20171;-79
2023/07/15 09:13:01;;;;;;;2.50;1.77;;;30.20;78.70;;;;;;5034759;28;20209;-79
2023/07/15 09:15:27;;;;;;;2.28;1.95;;;30.10;64.10;;;;;;5017154;28;20174;-79
2023/07/15 09:17:55;;;;;;;2.20;2.00;;;30.20;65.10;;;;;;5016757;28;20182;-79
2023/07/15 09:20:22;;;;;;;2.20;1.80;;;30.50;63.10;;;;;;5016470;28;20655;-79
2023/07/15 09:22:58;;;;;;;2.50;1.80;;;30.70;57.20;;;;;;5017281;28;20688;-81
2023/07/15 09:25:25;;;;;;;1.88;1.60;;;30.90;47.80;;;;;;5017215;28;20640;-79
2023/07/15 09:27:51;;;;;;;2.28;1.70;;;31.10;35.30;;;;;;5034555;28;20202;-79
2023/07/15 09:30:17;;;;;;;2.45;1.90;;;31.00;23.80;;;;;;5016363;28;20182;-79
2023/07/15 09:32:43;;;;;;;3.05;2.00;;;30.90;20.90;;;;;;5016404;28;20194;-79
2023/07/15 09:35:09;;;;;;;2.53;1.92;;;30.90;21.20;;;;;;5016729;28;20171;-79
2023/07/15 09:37:34;;;;;;;2.00;1.73;;;30.70;23.30;;;;;;5034666;28;20175;-79
2023/07/15 09:40:07;;;;;;;2.47;1.75;;;30.50;23.20;;;;;;5016413;28;20166;-79
2023/07/15 09:42:55;;;;;;;3.38;1.92;;;30.70;21.70;;;;;;5034412;28;20571;-79
2023/07/15 09:45:40;;;;;;;1.88;1.77;;;30.50;18.90;;;;;;5033990;28;20236;-79
2023/07/15 09:48:11;;;;;;;1.90;1.70;;;30.40;21.90;;;;;;5034285;28;20209;-79
2023/07/15 09:50:39;;;;;;;2.97;2.00;;;30.40;20.20;;;;;;5015924;28;20167;-79
2023/07/15 09:53:05;;;;;;;2.95;1.83;;;30.40;20.80;;;;;;5033963;28;20190;-79
2023/07/15 09:55:33;;;;;;;2.53;2.03;;;30.50;21.30;;;;;;5033513;28;20175;-79
2023/07/15 09:58:23;;;;;;;2.60;2.00;;;30.30;20.80;;;;;;5033836;28;20210;-79
2023/07/15 10:01:03;;;;;;;1.88;1.77;;;30.20;21.50;;;;;;5033388;28;20570;-79
2023/07/15 10:03:39;;;;;;;2.10;1.90;;;30.10;27.10;;;;;;5034333;28;20209;-82
2023/07/15 10:06:05;;;;;;;2.25;1.80;;;30.20;30.20;;;;;;5016794;28;20280;-81
2023/07/15 10:08:32;;;;;;;2.60;1.90;;;30.50;25.30;;;;;;5017548;28;20542;-79
2023/07/15 10:10:57;;;;;;;4.32;2.08;;;30.70;26.70;;;;;;5037105;28;20177;-80
2023/07/15 10:13:23;;;;;;;2.58;1.92;;;30.60;22.60;;;;;;5018897;28;20190;-77
2023/07/15 10:15:49;;;;;;;2.67;2.00;;;30.60;21.70;;;;;;5034543;28;20173;-80
2023/07/15 10:18:19;;;;;;;1.98;1.70;;;30.60;21.20;;;;;;5035041;28;20265;-80
2023/07/15 10:20:56;;;;;;;2.15;1.92;;;30.50;20.40;;;;;;5034233;28;20163;-80
2023/07/15 10:23:26;;;;;;;2.33;2.00;;;30.40;20.20;;;;;;5034638;28;20248;-80
2023/07/15 10:26:08;;;;;;;2.22;1.95;;;30.80;21.90;;;;;;5017069;28;20229;-80
2023/07/15 10:28:40;;;;;;;2.97;1.90;;;31.20;20.80;;;;;;5034897;28;20177;-80
2023/07/15 10:31:14;;;;;;;3.40;1.90;;;31.50;13.70;;;;;;5034350;28;20174;-80
2023/07/15 10:33:54;;;;;;;2.42;2.00;;;31.70;8.40;;;;;;5034817;28;20273;-80
2023/07/15 10:36:38;;;;;;;2.00;1.80;;;31.90;6.90;;;;;;5034527;28;20162;-80
2023/07/15 10:39:10;;;;;;;2.45;1.85;;;31.70;2.30;;;;;;5034806;28;20231;-80
2023/07/15 10:41:43;;;;;;;2.20;2.00;;;31.30;3.20;;;;;;5016428;28;20194;-80
2023/07/15 10:44:37;;;;;;;2.70;1.90;;;30.90;3.80;;;;;;5034719;28;20210;-82
2023/07/15 10:47:04;;;;;;;2.40;2.20;;;30.50;7.40;;;;;;5017761;28;20732;-80
2023/07/15 10:49:30;;;;;;;2.25;2.05;;;30.30;13.10;;;;;;5019045;28;20544;-79
2023/07/15 10:51:57;;;;;;;1.90;1.80;;;30.20;17.50;;;;;;5018356;28;20224;-81
2023/07/15 10:54:27;;;;;;;2.95;2.20;;;30.10;19.80;;;;;;5036004;28;20193;-81
2023/07/15 10:56:53;;;;;;;2.22;2.00;;;30.10;23.30;;;;;;5016754;28;20174;-78
2023/07/15 10:59:20;;;;;;;3.78;2.25;;;30.00;25.90;;;;;;5034411;28;20183;-79
2023/07/15 11:01:46;;;;;;;2.15;1.95;;;30.00;29.30;;;;;;5016070;28;20185;-79
2023/07/15 11:04:13;;;;;;;2.20;2.00;;;30.10;33.40;;;;;;5034001;28;20218;-80
2023/07/15 11:06:38;;;;;;;2.35;2.15;;;30.00;34.20;;;;;;5016325;28;20194;-79
2023/07/15 11:09:14;;;;;;;2.17;1.95;;;30.00;43.10;;;;;;5032588;28;20176;-79
2023/07/15 11:11:40;;;;;;;2.45;2.25;;;29.90;44.30;;;;;;5014767;28;20170;-79
2023/07/15 11:14:05;;;;;;;2.30;2.10;;;29.80;48.40;;;;;;5033482;28;20800;-79
2023/07/15 11:16:35;;;;;;;3.63;2.50;;;29.80;52.00;;;;;;5016475;28;20178;-79
2023/07/15 11:19:01;;;;;;;3.38;2.03;;;29.70;52.20;;;;;;5033514;28;20245;-79
2023/07/15 11:21:27;;;;;;;2.20;2.00;;;30.00;55.80;;;;;;5015890;28;20178;-79
2023/07/15 11:23:52;;;;;;;2.30;2.10;;;30.70;54.80;;;;;;5034024;28;20194;-79
2023/07/15 11:26:18;;;;;;;2.38;2.17;;;31.20;41.80;;;;;;5033353;28;20680;-79
2023/07/15 11:28:50;;;;;;;2.55;2.35;;;31.20;55.20;;;;;;5015958;28;20223;-79
2023/07/15 11:31:18;;;;;;;3.13;2.20;;;30.90;38.00;;;;;;5033221;28;20170;-79
2023/07/15 11:33:48;;;;;;;2.95;2.22;;;30.70;38.10;;;;;;5034009;28;20190;-79
2023/07/15 11:36:13;;;;;;;2.53;2.30;;;30.50;40.40;;;;;;5016435;28;20178;-79
2023/07/15 11:38:41;;;;;;;2.28;2.08;;;30.30;43.20;;;;;;5016086;28;20515;-79
2023/07/15 11:41:06;;;;;;;3.53;2.50;;;30.10;48.10;;;;;;5015894;28;20232;-79
2023/07/15 11:43:32;;;;;;;2.85;2.25;;;30.10;54.80;;;;;;5015570;28;20610;-79
2023/07/15 11:46:00;;;;;;;3.00;2.30;;;30.10;61.90;;;;;;5016352;28;20174;-79
2023/07/15 11:48:33;;;;;;;4.38;2.50;;;30.10;67.70;;;;;;5015979;28;20623;-79
2023/07/15 11:51:06;;;;;;;2.85;2.35;;;30.10;72.40;;;;;;5015511;28;20225;-79
2023/07/15 11:53:37;;;;;;;3.33;2.20;;;30.00;72.30;;;;;;5033221;28;20198;-80
2023/07/15 11:56:03;;;;;;;3.85;2.28;;;30.10;83.30;;;;;;5015750;28;20178;-79
2023/07/15 11:58:38;;;;;;;3.72;2.50;;;30.10;83.30;;;;;;5016012;28;20181;-79
2023/07/15 12:01:05;;;;;;;2.50;2.30;;;30.10;87.10;;;;;;5015725;28;20188;-80
2023/07/15 12:03:31;;;;;;;3.58;2.30;;;30.00;86.90;;;;;;5053658;22;20247;-81
2023/07/15 12:05:57;;;;;;;2.95;2.10;;;30.00;90.50;;;;;;5074619;28;20561;-81
2023/07/15 12:08:22;;;;;;;2.60;2.40;;;29.90;90.30;;;;;;5076138;28;20173;-82
2023/07/15 12:10:54;;;;;;;2.50;2.30;;;29.90;91.90;;;;;;5076071;28;20172;-81
2023/07/15 12:13:19;;;;;;;2.88;2.30;;;29.90;91.50;;;;;;5091804;28;20189;-81
2023/07/15 12:15:45;;;;;;;3.33;2.63;;;30.00;87.90;;;;;;5074265;28;20192;-81
2023/07/15 12:18:12;;;;;;;3.80;2.40;;;29.90;92.90;;;;;;5075256;28;20542;-82
2023/07/15 12:20:37;;;;;;;2.75;2.40;;;29.80;83.10;;;;;;5072443;28;20216;-80
2023/07/15 12:23:03;;;;;;;2.78;2.40;;;29.70;81.00;;;;;;5073435;28;20632;-81
2023/07/15 12:25:29;;;;;;;2.85;2.40;;;29.60;79.10;;;;;;5075124;28;20169;-80
2023/07/15 12:27:54;;;;;;;3.28;2.47;;;29.50;87.10;;;;;;5072989;28;20215;-80
2023/07/15 12:30:20;;;;;;;5.43;2.40;;;29.40;93.20;;;;;;5073419;28;20188;-80
2023/07/15 12:32:45;;;;;;;2.80;2.60;;;29.20;96.80;;;;;;5068039;28;20166;-80
2023/07/15 12:35:11;;;;;;;3.42;2.50;;;29.20;98.60;;;;;;5071329;28;20195;-80
2023/07/15 12:37:38;;;;;;;3.05;2.33;;;29.20;98.40;;;;;;5075361;28;20180;-80
2023/07/15 12:40:07;;;;;;;2.67;2.30;;;29.10;99.90;;;;;;5076369;28;20168;-81
2023/07/15 12:42:34;;;;;;;3.20;2.60;;;29.20;99.90;;;;;;5075598;28;20195;-81
2023/07/15 12:44:59;;;;;;;5.00;2.40;;;29.20;99.90;;;;;;5075404;28;20288;-80
2023/07/15 12:47:25;;;;;;;3.25;2.22;;;29.20;99.90;;;;;;5076615;28;20744;-81
2023/07/15 12:49:50;;;;;;;2.60;2.40;;;29.40;99.90;;;;;;5075545;28;20199;-80